createdAt,value
2019-04-16T00:02:18.497Z,103211.59
2019-04-16T00:05:07.370Z,103211.59
2019-04-16T00:07:47.077Z,103218.97
2019-04-16T00:10:44.574Z,103215.15
2019-04-16T00:13:35.524Z,103215.15
2019-04-16T00:16:05.036Z,103208.84
2019-04-16T00:18:34.480Z,103210.79
2019-04-16T00:21:22.669Z,103209.48
2019-04-16T00:24:18.557Z,103203.62
2019-04-16T00:26:57.930Z,103211.95
2019-04-16T00:29:25.009Z,103203.15
2019-04-16T00:31:57.782Z,103205.25
2019-04-16T00:34:27.317Z,103205.25
2019-04-16T00:36:57.067Z,103017.69
2019-04-16T00:39:27.112Z,103207.54
2019-04-16T00:41:57.434Z,103203.95
2019-04-16T00:44:27.277Z,103203.15
2019-04-16T00:46:57.137Z,103203.78
2019-04-16T00:49:27.216Z,103208.84
2019-04-16T00:51:57.847Z,103201.83
2019-04-16T00:54:27.614Z,103207.45
2019-04-16T00:56:57.201Z,103213.59
2019-04-16T00:59:26.950Z,103207.05
2019-04-16T01:01:57.704Z,103201.69
2019-04-16T01:04:28.119Z,103195.31
2019-04-16T01:06:57.664Z,103195.61
2019-04-16T01:09:27.514Z,103200.37
2019-04-16T01:11:57.199Z,103193.16
2019-04-16T01:14:27.475Z,103193.78
2019-04-16T01:16:57.667Z,103200.47
2019-04-16T01:19:28.498Z,103208.48
2019-04-16T01:21:58.252Z,103197.86
2019-04-16T01:24:27.677Z,103201.28
2019-04-16T01:26:59.116Z,103203.88
2019-04-16T01:29:33.638Z,103015.10
2019-04-16T01:32:27.724Z,103214.77
2019-04-16T01:35:19.805Z,103197.83
2019-04-16T01:38:07.005Z,103207.77
2019-04-16T01:40:42.752Z,103211.94
2019-04-16T01:43:12.415Z,103205.56
2019-04-16T01:45:41.901Z,103206.28
2019-04-16T01:48:11.562Z,103208.42
2019-04-16T01:50:43.769Z,103203.20
2019-04-16T01:53:13.022Z,103212.41
2019-04-16T01:55:42.732Z,103211.25
2019-04-16T01:58:12.409Z,103212.16
2019-04-16T02:00:42.061Z,103212.63
2019-04-16T02:03:11.558Z,103212.05
2019-04-16T02:05:41.111Z,103216.48
2019-04-16T02:08:10.685Z,103217.34
2019-04-16T02:10:40.216Z,103211.98
2019-04-16T02:13:09.683Z,103210.49
2019-04-16T02:15:41.212Z,103216.04
2019-04-16T02:18:10.756Z,103203.72
2019-04-16T02:20:40.320Z,103215.02
2019-04-16T02:23:09.958Z,103209.81
2019-04-16T02:25:39.507Z,103205.42
2019-04-16T02:28:09.384Z,103203.53
2019-04-16T02:30:39.811Z,103205.89
2019-04-16T02:33:09.427Z,103208.79
2019-04-16T02:35:38.971Z,103204.36
2019-04-16T02:38:12.259Z,103197.23
2019-04-16T02:40:40.029Z,103195.73
2019-04-16T02:43:09.871Z,103197.23
2019-04-16T02:45:39.502Z,103189.88
2019-04-16T02:48:15.269Z,103192.01
2019-04-16T02:50:43.922Z,103191.50
2019-04-16T02:53:31.326Z,103196.86
2019-04-16T02:56:20.212Z,103194.66
2019-04-16T02:58:55.081Z,103199.65
2019-04-16T03:01:42.412Z,103190.59
2019-04-16T03:04:16.210Z,103187.36
2019-04-16T03:06:45.966Z,103195.84
2019-04-16T03:09:15.718Z,103191.55
2019-04-16T03:11:45.555Z,103193.58
2019-04-16T03:14:16.738Z,103188.53
2019-04-16T03:17:11.876Z,103183.67
2019-04-16T03:19:42.955Z,103182.36
2019-04-16T03:22:12.391Z,103181.38
2019-04-16T03:24:42.021Z,103176.96
2019-04-16T03:27:11.663Z,103184.17
2019-04-16T03:29:41.073Z,103170.13
2019-04-16T03:32:14.275Z,103165.60
2019-04-16T03:34:41.870Z,103175.20
2019-04-16T03:37:11.350Z,103172.73
2019-04-16T03:39:43.781Z,103164.44
2019-04-16T03:42:12.609Z,103170.67
2019-04-16T03:44:42.045Z,103175.78
2019-04-16T03:47:11.945Z,103173.90
2019-04-16T03:49:41.694Z,103174.73
2019-04-16T03:52:11.226Z,103175.84
2019-04-16T03:54:40.968Z,103165.55
2019-04-16T03:57:10.984Z,103164.76
2019-04-16T03:59:40.801Z,103158.71
2019-04-16T04:02:10.621Z,103164.57
2019-04-16T04:04:40.242Z,103161.97
2019-04-16T04:07:12.027Z,103159.30
2019-04-16T04:09:41.317Z,103165.50
2019-04-16T04:12:13.341Z,103157.81
2019-04-16T04:14:42.199Z,103156.83
2019-04-16T04:17:12.144Z,103164.14
2019-04-16T04:19:43.548Z,103166.09
2019-04-16T04:22:12.984Z,103162.50
2019-04-16T04:24:42.378Z,103160.88
2019-04-16T04:27:13.960Z,103159.25
2019-04-16T04:29:46.133Z,103158.66
2019-04-16T04:32:15.204Z,103155.33
2019-04-16T04:34:45.402Z,103155.98
2019-04-16T04:37:16.070Z,103151.92
2019-04-16T04:39:46.239Z,103157.07
2019-04-16T04:42:18.619Z,103162.28
2019-04-16T04:44:47.802Z,103161.30
2019-04-16T04:47:19.270Z,103160.85
2019-04-16T04:49:48.749Z,103164.89
2019-04-16T04:52:18.556Z,103162.91
2019-04-16T04:54:48.007Z,103157.07
2019-04-16T04:57:17.498Z,103159.67
2019-04-16T04:59:47.436Z,103151.31
2019-04-16T05:02:17.057Z,103154.91
2019-04-16T05:04:53.254Z,103156.88
2019-04-16T05:07:25.737Z,103156.75
2019-04-16T05:09:54.643Z,103165.08
2019-04-16T05:12:24.179Z,103162.95
2019-04-16T05:14:58.634Z,103158.72
2019-04-16T05:17:29.396Z,103164.91
2019-04-16T05:20:01.966Z,103163.47
2019-04-16T05:22:33.223Z,103164.86
2019-04-16T05:25:03.332Z,103159.30
2019-04-16T05:27:32.836Z,103167.20
2019-04-16T05:30:04.500Z,103159.12
2019-04-16T05:32:34.426Z,103156.89
2019-04-16T05:35:09.200Z,103154.14
2019-04-16T05:37:35.604Z,103147.50
2019-04-16T05:40:05.987Z,103147.89
2019-04-16T05:42:35.530Z,103148.87
2019-04-16T05:45:06.411Z,103142.81
2019-04-16T05:47:36.036Z,103147.44
2019-04-16T05:50:06.068Z,103145.67
2019-04-16T05:52:36.579Z,103156.03
2019-04-16T05:55:25.489Z,103159.17
2019-04-16T05:57:58.152Z,103161.84
2019-04-16T06:00:33.946Z,103157.02
2019-04-16T06:03:03.767Z,103163.08
2019-04-16T06:05:33.243Z,103156.05
2019-04-16T06:08:12.457Z,103154.86
2019-04-16T06:10:41.909Z,103154.33
2019-04-16T06:13:34.889Z,103150.94
2019-04-16T06:16:14.307Z,103149.49
2019-04-16T06:18:56.688Z,103150.33
2019-04-16T06:21:39.818Z,103153.95
2019-04-16T06:24:40.331Z,103139.25
2019-04-16T06:27:29.062Z,103139.65
2019-04-16T06:30:21.153Z,103145.15
2019-04-16T06:32:57.168Z,103140.16
2019-04-16T06:35:43.315Z,103139.82
2019-04-16T06:38:17.843Z,103145.55
2019-04-16T06:41:12.519Z,103138.62
2019-04-16T06:43:44.457Z,103146.25
2019-04-16T06:46:49.639Z,103133.52
2019-04-16T06:49:39.431Z,103138.34
2019-04-16T06:52:29.679Z,103132.80
2019-04-16T06:55:27.981Z,103132.89
2019-04-16T06:58:28.523Z,103133.23
2019-04-16T07:01:22.518Z,103127.45
2019-04-16T07:03:58.272Z,103128.26
2019-04-16T07:06:50.694Z,103124.34
2019-04-16T07:09:35.137Z,103122.86
2019-04-16T07:12:01.803Z,103120.66
2019-04-16T07:14:31.453Z,103118.37
2019-04-16T07:17:01.145Z,103110.19
2019-04-16T07:19:30.392Z,103105.47
2019-04-16T07:22:00.181Z,103107.67
2019-04-16T07:24:31.420Z,103122.29
2019-04-16T07:27:01.791Z,103110.92
2019-04-16T07:29:51.821Z,103107.48
2019-04-16T07:32:52.383Z,103104.75
2019-04-16T07:35:44.080Z,103099.34
2019-04-16T07:38:47.870Z,103095.11
2019-04-16T07:41:27.316Z,103095.36
2019-04-16T07:44:36.462Z,103096.59
2019-04-16T07:47:20.052Z,103097.05
2019-04-16T07:50:11.878Z,103094.85
2019-04-16T07:52:58.638Z,103104.27
2019-04-16T07:55:35.816Z,103095.00
2019-04-16T07:58:05.282Z,103100.66
2019-04-16T08:00:40.291Z,103093.09
2019-04-16T08:03:06.450Z,103108.52
2019-04-16T08:05:37.735Z,103104.59
2019-04-16T08:08:11.230Z,103101.92
2019-04-16T08:10:40.731Z,103101.92
2019-04-16T08:13:20.927Z,103104.95
2019-04-16T08:15:50.460Z,103104.95
2019-04-16T08:18:20.196Z,103099.97
2019-04-16T08:21:01.184Z,103099.97
2019-04-16T08:23:30.673Z,103089.16
2019-04-16T08:26:04.076Z,103086.59
2019-04-16T08:28:32.877Z,103090.47
2019-04-16T08:31:03.018Z,103091.42
2019-04-16T08:33:32.509Z,103085.98
2019-04-16T08:36:02.018Z,103085.98
2019-04-16T08:38:34.828Z,103084.17
2019-04-16T08:41:02.950Z,103073.59
2019-04-16T08:43:32.617Z,103077.39
2019-04-16T08:46:02.291Z,103079.02
2019-04-16T08:48:31.739Z,103076.70
2019-04-16T08:51:04.309Z,103074.55
2019-04-16T08:53:35.456Z,103083.67
2019-04-16T08:56:04.359Z,103077.76
2019-04-16T08:58:35.642Z,103078.47
2019-04-16T09:01:06.685Z,103079.55
2019-04-16T09:03:36.334Z,103073.36
2019-04-16T09:06:06.863Z,103079.67
2019-04-16T09:08:55.804Z,103069.39
2019-04-16T09:11:28.340Z,103075.72
2019-04-16T09:14:01.032Z,103075.72
2019-04-16T09:16:31.810Z,103083.97
2019-04-16T09:19:06.418Z,103083.03
2019-04-16T09:21:35.897Z,103080.37
2019-04-16T09:24:22.468Z,103082.33
2019-04-16T09:27:06.746Z,103081.05
2019-04-16T09:29:49.595Z,103081.05
2019-04-16T09:32:49.836Z,103084.78
2019-04-16T09:35:34.094Z,103057.56
2019-04-16T09:38:22.839Z,103057.56
2019-04-16T09:41:11.683Z,103063.06
2019-04-16T09:43:46.529Z,103066.27
2019-04-16T09:46:22.229Z,103075.88
2019-04-16T09:48:50.012Z,103078.88
2019-04-16T09:51:20.771Z,103076.04
2019-04-16T09:53:50.394Z,103076.04
2019-04-16T09:56:29.975Z,103082.23
2019-04-16T09:59:19.857Z,103083.67
2019-04-16T10:01:56.442Z,103072.47
2019-04-16T10:04:26.254Z,103072.47
2019-04-16T10:06:56.137Z,103074.23
2019-04-16T10:09:25.838Z,103065.47
2019-04-16T10:11:57.253Z,103059.89
2019-04-16T10:14:26.668Z,103061.44
2019-04-16T10:16:56.498Z,103059.08
2019-04-16T10:19:26.199Z,103055.95
2019-04-16T10:21:55.807Z,103055.60
2019-04-16T10:24:47.617Z,103047.92
2019-04-16T10:27:31.298Z,103049.61
2019-04-16T10:30:00.150Z,103037.23
2019-04-16T10:32:30.044Z,103032.05
2019-04-16T10:34:59.431Z,103032.05
2019-04-16T10:37:29.141Z,103035.92
2019-04-16T10:40:05.057Z,103036.34
2019-04-16T10:43:06.917Z,103040.33
2019-04-16T10:45:58.078Z,103040.70
2019-04-16T10:48:46.768Z,103068.60
2019-04-16T10:51:33.879Z,103069.02
2019-04-16T10:54:12.308Z,103069.02
2019-04-16T10:57:00.678Z,103065.95
2019-04-16T10:59:39.808Z,103050.78
2019-04-16T11:02:28.741Z,103050.78
2019-04-16T11:05:19.000Z,103041.10
2019-04-16T11:07:49.419Z,103037.38
2019-04-16T11:10:19.090Z,103032.41
2019-04-16T11:12:48.488Z,103019.97
2019-04-16T11:15:23.427Z,103029.48
2019-04-16T11:17:55.426Z,103012.45
2019-04-16T11:20:25.797Z,103009.95
2019-04-16T11:22:55.334Z,103007.59
2019-04-16T11:25:25.153Z,102998.77
2019-04-16T11:27:55.368Z,103000.09
2019-04-16T11:30:48.760Z,102997.31
2019-04-16T11:33:17.745Z,103001.58
2019-04-16T11:35:52.816Z,102989.52
2019-04-16T11:38:18.992Z,103005.91
2019-04-16T11:40:48.449Z,103005.95
2019-04-16T11:43:18.026Z,103000.39
2019-04-16T11:45:48.076Z,102988.84
2019-04-16T11:48:17.590Z,102988.84
2019-04-16T11:50:47.449Z,102978.87
2019-04-16T11:53:17.214Z,102988.23
2019-04-16T11:55:46.703Z,102974.74
2019-04-16T11:58:26.353Z,102974.74
2019-04-16T12:01:04.726Z,102981.30
2019-04-16T12:03:50.644Z,102959.11
2019-04-16T12:06:34.426Z,102969.88
2019-04-16T12:09:32.556Z,102952.72
2019-04-16T12:12:23.690Z,102959.13
2019-04-16T12:15:14.982Z,102956.86
2019-04-16T12:17:56.018Z,102956.56
2019-04-16T12:20:44.102Z,102961.27
2019-04-16T12:23:31.415Z,102954.63
2019-04-16T12:26:18.589Z,102958.02
2019-04-16T12:29:11.020Z,102952.42
2019-04-16T12:31:57.135Z,102960.33
2019-04-16T12:34:51.151Z,102966.23
2019-04-16T12:37:30.509Z,102962.91
2019-04-16T12:40:09.723Z,102957.73
2019-04-16T12:42:48.493Z,102954.38
2019-04-16T12:45:40.137Z,102963.23
2019-04-16T12:48:33.378Z,102957.34
2019-04-16T12:51:08.102Z,102969.89
2019-04-16T12:53:55.266Z,102960.98
2019-04-16T12:56:42.747Z,102967.41
2019-04-16T12:59:15.456Z,102963.25
2019-04-16T13:02:21.904Z,102966.14
2019-04-16T13:05:09.345Z,102968.29
2019-04-16T13:08:03.752Z,102972.25
2019-04-16T13:10:55.451Z,102971.31
2019-04-16T13:13:47.970Z,102969.27
2019-04-16T13:16:25.372Z,102970.33
2019-04-16T13:19:31.706Z,102972.38
2019-04-16T13:22:04.288Z,102973.80
2019-04-16T13:24:46.681Z,102970.20
2019-04-16T13:27:18.824Z,102972.34
2019-04-16T13:29:48.467Z,102965.63
2019-04-16T13:32:17.991Z,102965.45
2019-04-16T13:34:47.880Z,102960.75
2019-04-16T13:37:19.686Z,102959.49
2019-04-16T13:39:59.501Z,102953.47
2019-04-16T13:42:28.453Z,102943.83
2019-04-16T13:45:15.770Z,102943.83
2019-04-16T13:47:45.957Z,102952.03
2019-04-16T13:50:24.228Z,102946.67
2019-04-16T13:52:58.420Z,102955.23
2019-04-16T13:55:32.767Z,102945.78
2019-04-16T13:58:24.348Z,102943.55
2019-04-16T14:00:58.814Z,102943.55
2019-04-16T14:03:28.399Z,102946.09
2019-04-16T14:05:59.105Z,102938.58
2019-04-16T14:08:29.115Z,102936.13
2019-04-16T14:10:59.136Z,102939.72
2019-04-16T14:13:28.689Z,102934.14
2019-04-16T14:15:58.824Z,102932.27
2019-04-16T14:18:29.594Z,102929.77
2019-04-16T14:21:00.470Z,102928.88
2019-04-16T14:23:30.048Z,102932.03
2019-04-16T14:25:59.570Z,102931.51
2019-04-16T14:28:34.287Z,102931.12
2019-04-16T14:31:00.959Z,102933.00
2019-04-16T14:33:46.336Z,102942.05
2019-04-16T14:36:15.899Z,102927.32
2019-04-16T14:38:49.877Z,102933.61
2019-04-16T14:41:19.551Z,102938.26
2019-04-16T14:43:55.069Z,102938.80
2019-04-16T14:46:28.192Z,102938.80
2019-04-16T14:48:56.508Z,102937.56
2019-04-16T14:51:26.212Z,102933.44
2019-04-16T14:54:01.894Z,102935.30
2019-04-16T14:56:40.286Z,102930.41
2019-04-16T14:59:33.729Z,102935.30
2019-04-16T15:02:11.078Z,102931.50
2019-04-16T15:04:58.410Z,102934.87
2019-04-16T15:07:36.206Z,102927.73
2019-04-16T15:10:28.784Z,102925.41
2019-04-16T15:13:22.113Z,102915.64
2019-04-16T15:16:08.235Z,102906.14
2019-04-16T15:18:52.854Z,102917.02
2019-04-16T15:21:50.581Z,102913.95
2019-04-16T15:24:29.692Z,102916.39
2019-04-16T15:27:07.342Z,102913.30
2019-04-16T15:30:00.651Z,102911.81
2019-04-16T15:32:53.079Z,102916.30
2019-04-16T15:35:33.921Z,102923.78
2019-04-16T15:38:20.946Z,102903.12
2019-04-16T15:40:52.416Z,102913.59
2019-04-16T15:43:39.735Z,102903.88
2019-04-16T15:46:27.806Z,102899.60
2019-04-16T15:49:22.682Z,102903.52
2019-04-16T15:58:51.740Z,102898.29
2019-04-16T16:01:38.941Z,102737.50
2019-04-16T16:04:17.443Z,102900.52
2019-04-16T16:07:09.322Z,102903.31
2019-04-16T16:10:22.212Z,102904.66
2019-04-16T16:12:53.616Z,102902.62
2019-04-16T16:15:23.722Z,102908.83
2019-04-16T16:17:53.348Z,102899.15
2019-04-16T16:20:23.281Z,102901.17
2019-04-16T16:22:54.595Z,102900.92
2019-04-16T16:25:24.658Z,102895.52
2019-04-16T16:27:54.321Z,102902.19
2019-04-16T16:30:24.390Z,102899.55
2019-04-16T16:32:54.442Z,102897.23
2019-04-16T16:35:24.628Z,102895.12
2019-04-16T16:37:56.473Z,102897.36
2019-04-16T16:40:26.239Z,102891.16
2019-04-16T16:42:55.878Z,102899.91
2019-04-16T16:45:41.251Z,102894.28
2019-04-16T16:48:10.836Z,102893.01
2019-04-16T16:50:41.060Z,102895.73
2019-04-16T16:53:23.211Z,102890.02
2019-04-16T16:55:57.885Z,102893.58
2019-04-16T16:58:46.764Z,102892.66
2019-04-16T17:01:40.926Z,102897.13
2019-04-16T17:04:14.025Z,102896.91
2019-04-16T17:06:43.822Z,102901.39
2019-04-16T17:09:27.115Z,102898.44
2019-04-16T17:11:56.840Z,102909.07
2019-04-16T17:14:26.758Z,102914.66
2019-04-16T17:17:11.342Z,102906.66
2019-04-16T17:19:28.375Z,102903.92
2019-04-16T17:21:58.101Z,102911.33
2019-04-16T17:24:27.743Z,102906.88
2019-04-16T17:26:57.748Z,102911.16
2019-04-16T17:29:27.318Z,102913.69
2019-04-16T17:31:56.828Z,102910.10
2019-04-16T17:34:26.828Z,102918.02
2019-04-16T17:36:56.636Z,102921.97
2019-04-16T17:39:54.668Z,102921.58
2019-04-16T17:42:39.075Z,102924.09
2019-04-16T17:45:33.972Z,102923.91
2019-04-16T17:48:37.645Z,102928.16
2019-04-16T17:51:26.494Z,102934.33
2019-04-16T17:54:17.999Z,102936.06
2019-04-16T17:57:05.733Z,102932.52
2019-04-16T17:59:42.825Z,102936.73
2019-04-16T18:02:37.428Z,102934.39
2019-04-16T18:05:29.263Z,102937.77
2019-04-16T18:08:17.984Z,102948.68
2019-04-16T18:11:06.433Z,102950.33
2019-04-16T18:13:45.529Z,102950.23
2019-04-16T18:16:22.645Z,102961.48
2019-04-16T18:19:12.152Z,102968.44
2019-04-16T18:21:49.133Z,102965.31
2019-04-16T18:24:27.974Z,102965.70
2019-04-16T18:27:29.511Z,102970.33
2019-04-16T18:30:30.420Z,102969.69
2019-04-16T18:33:18.880Z,102975.63
2019-04-16T18:36:26.606Z,102978.30
2019-04-16T18:39:09.391Z,102980.03
2019-04-16T18:41:46.753Z,102987.77
2019-04-16T18:44:38.366Z,102987.19
2019-04-16T18:47:36.603Z,102987.95
2019-04-16T18:50:13.805Z,102991.42
2019-04-16T18:52:43.658Z,102995.48
2019-04-16T18:55:13.703Z,102995.48
2019-04-16T18:57:43.454Z,103001.06
2019-04-16T19:00:31.926Z,103002.80
2019-04-16T19:03:00.636Z,103010.66
2019-04-16T19:05:33.349Z,103018.42
2019-04-16T19:08:03.484Z,103020.53
2019-04-16T19:10:33.426Z,103024.52
2019-04-16T19:13:09.701Z,103036.19
2019-04-16T19:15:35.983Z,103034.77
2019-04-16T19:18:19.343Z,103034.66
2019-04-16T19:20:37.353Z,103055.98
2019-04-16T19:23:07.000Z,103055.09
2019-04-16T19:25:38.613Z,103065.31
2019-04-16T19:28:08.639Z,103065.84
2019-04-16T19:30:39.368Z,103076.17
2019-04-16T19:33:09.077Z,103076.84
2019-04-16T19:35:38.808Z,103080.45
2019-04-16T19:38:08.506Z,103084.14
2019-04-16T19:40:38.707Z,103090.72
2019-04-16T19:43:08.239Z,103088.34
2019-04-16T19:45:40.612Z,103098.75
2019-04-16T19:48:10.162Z,103099.20
2019-04-16T19:50:39.761Z,103095.52
2019-04-16T19:53:14.950Z,103105.34
2019-04-16T19:55:45.946Z,103105.34
2019-04-16T19:58:15.818Z,103103.59
2019-04-16T20:00:45.455Z,103103.59
2019-04-16T20:03:16.673Z,103101.95
2019-04-16T20:05:46.370Z,103101.95
2019-04-16T20:08:15.982Z,103118.50
2019-04-16T20:10:49.060Z,103112.22
2019-04-16T20:13:18.672Z,103119.28
2019-04-16T20:15:48.175Z,103119.28
2019-04-16T20:18:20.056Z,103115.59
2019-04-16T20:20:51.308Z,103115.95
2019-04-16T20:23:21.574Z,103125.27
2019-04-16T20:25:51.372Z,103121.56
2019-04-16T20:28:22.047Z,103124.87
2019-04-16T20:30:57.361Z,103128.37
2019-04-16T20:33:23.008Z,103130.22
2019-04-16T20:35:53.276Z,103131.25
2019-04-16T20:38:22.926Z,103134.94
2019-04-16T20:40:53.395Z,103131.47
2019-04-16T20:43:23.623Z,103134.82
2019-04-16T20:45:53.836Z,103134.70
2019-04-16T20:48:25.928Z,103134.70
2019-04-16T20:50:59.341Z,103144.66
2019-04-16T20:53:27.256Z,103143.77
2019-04-16T20:56:00.366Z,103143.77
2019-04-16T20:58:32.426Z,103144.03
2019-04-16T21:01:03.273Z,103158.09
2019-04-16T21:03:33.138Z,103155.41
2019-04-16T21:06:07.824Z,103160.87
2019-04-16T21:08:36.621Z,103161.44
2019-04-16T21:11:09.627Z,103169.06
2019-04-16T21:13:39.705Z,103169.80
2019-04-16T21:16:16.953Z,103176.72
2019-04-16T21:18:46.735Z,103175.30
2019-04-16T21:21:16.598Z,103175.95
2019-04-16T21:23:48.462Z,103180.11
2019-04-16T21:26:19.937Z,103175.93
2019-04-16T21:29:21.674Z,103174.69
2019-04-16T21:31:55.640Z,103186.11
2019-04-16T21:34:34.791Z,103180.39
2019-04-16T21:37:23.296Z,103181.92
2019-04-16T21:40:01.403Z,103181.92
2019-04-16T21:42:34.251Z,103189.23
2019-04-16T21:45:03.701Z,103189.78
2019-04-16T21:47:33.414Z,103189.78
2019-04-16T21:50:03.189Z,103191.94
2019-04-16T21:52:35.478Z,103192.06
2019-04-16T21:55:05.831Z,103190.14
2019-04-16T21:57:35.634Z,103196.34
2019-04-16T22:00:08.899Z,103195.58
2019-04-16T22:02:39.261Z,103194.62
2019-04-16T22:05:10.092Z,103207.83
2019-04-16T22:07:39.614Z,103207.83
2019-04-16T22:10:09.278Z,103207.36
2019-04-16T22:12:39.035Z,103211.68
2019-04-16T22:15:09.073Z,103211.68
2019-04-16T22:17:39.422Z,103216.08
2019-04-16T22:20:09.194Z,103215.86
2019-04-16T22:22:38.697Z,103214.53
2019-04-16T22:25:08.330Z,103216.78
2019-04-16T22:27:39.682Z,103212.25
2019-04-16T22:30:10.143Z,103213.37
2019-04-16T22:32:39.734Z,103213.37
2019-04-16T22:35:09.291Z,103210.43
2019-04-16T22:37:38.801Z,103210.43
2019-04-16T22:40:45.717Z,103211.80
2019-04-16T22:43:46.206Z,103212.98
2019-04-16T22:46:37.244Z,103219.39
2019-04-16T22:49:06.833Z,103223.93
2019-04-16T22:51:36.308Z,103223.48
2019-04-16T22:54:06.847Z,103234.17
2019-04-16T22:57:01.420Z,103234.17
2019-04-16T22:59:30.642Z,103227.77
2019-04-16T23:02:00.557Z,103236.76
2019-04-16T23:04:29.983Z,103242.25
2019-04-16T23:06:59.629Z,103245.27
2019-04-16T23:09:30.775Z,103243.80
2019-04-16T23:12:00.815Z,103244.34
2019-04-16T23:14:34.265Z,103240.41
2019-04-16T23:17:02.120Z,103240.41
2019-04-16T23:19:32.452Z,103245.89
2019-04-16T23:22:02.087Z,103245.89
2019-04-16T23:24:31.746Z,103250.81
2019-04-16T23:27:04.521Z,103252.75
2019-04-16T23:29:32.689Z,103253.75
2019-04-16T23:32:02.422Z,103253.75
2019-04-16T23:34:34.859Z,103254.94
2019-04-16T23:37:04.371Z,103259.08
2019-04-16T23:39:36.499Z,103244.08
2019-04-16T23:42:05.369Z,103257.61
2019-04-16T23:44:58.587Z,103259.75
2019-04-16T23:47:39.616Z,103259.75
2019-04-16T23:50:22.027Z,103261.14
2019-04-16T23:53:16.666Z,103266.59
2019-04-16T23:56:05.067Z,103261.84
2019-04-16T23:58:43.126Z,103270.04
